LPAZ/SMA METAR and TAF weather

Enter ICAO airport designator
Station Type Date Time Source
LPAZ METAR 2021/10/20 06:30 UTC NOAA

LPAZ 200630Z 01003KT 330V030 9999 FEW028 17/14 Q1025


Station Type Date Time Source
LPAZ Decoded METAR 2021/10/20 06:30 UTC NOAA

Santa Maria Acores , Portugal (LPAZ) 36-58N 025-10W 100M
Oct 20, 2021 - 02:30 AM EDT / 2021.10.20 0630 UTC
Wind: from the N (010 degrees) at 3 MPH (3 KT) (direction variable):0
Visibility: greater than 7 mile(s):0
Sky conditions: mostly clear
Temperature: 62 F (17 C)
Dew Point: 57 F (14 C)
Relative Humidity: 82%
Pressure (altimeter): 30.27 in. Hg (1025 hPa)
ob: LPAZ 200630Z 01003KT 330V030 9999 FEW028 17/14 Q1025
cycle: 6

Station Type Date Time Source
LPAZ TAF 2021/10/20 06:18 UTC NOAA

TAF TAF LPAZ 200500Z 2006/2112 VRB05KT 9999 SCT025

Example: see airport list